createdAt,value
2023-04-14T00:00:56.066Z,7.25
2023-04-14T00:06:01.013Z,8.25
2023-04-14T00:11:05.974Z,7.50
2023-04-14T00:16:10.822Z,8.00
2023-04-14T00:21:15.688Z,9.75
2023-04-14T00:26:20.923Z,7.00
2023-04-14T00:31:25.989Z,4.75
2023-04-14T00:36:31.975Z,8.00
2023-04-14T00:41:37.957Z,5.00
2023-04-14T00:46:43.255Z,6.75
2023-04-14T00:51:49.534Z,6.75
2023-04-14T00:56:55.835Z,7.00
2023-04-14T01:02:02.879Z,6.50
2023-04-14T01:07:07.742Z,6.75
2023-04-14T01:12:13.124Z,8.50
2023-04-14T01:17:51.127Z,4.00
2023-04-14T01:23:00.191Z,7.75
2023-04-14T01:28:17.031Z,5.00
2023-04-14T01:33:24.395Z,6.50
2023-04-14T01:38:30.612Z,4.50
2023-04-14T01:43:39.725Z,7.00
2023-04-14T01:48:45.397Z,5.50
2023-04-14T01:53:52.676Z,5.50
2023-04-14T01:58:59.492Z,6.00
2023-04-14T02:04:05.885Z,6.00
2023-04-14T02:09:14.218Z,5.25
2023-04-14T02:14:20.381Z,4.00
2023-04-14T02:19:26.189Z,4.50
2023-04-14T02:24:32.379Z,4.75
2023-04-14T02:29:40.105Z,4.75
2023-04-14T02:34:55.775Z,5.50
2023-04-14T02:40:03.584Z,7.50
2023-04-14T02:45:13.950Z,7.00
2023-04-14T02:50:20.401Z,4.25
2023-04-14T02:55:36.863Z,5.25
2023-04-14T03:00:45.403Z,6.00
2023-04-14T03:05:50.539Z,5.25
2023-04-14T03:10:56.582Z,5.00
2023-04-14T03:16:04.374Z,7.25
2023-04-14T03:21:10.328Z,4.00
2023-04-14T03:26:19.860Z,13.75
2023-04-14T03:31:31.862Z,33.75
2023-04-14T03:36:38.663Z,15.00
2023-04-14T03:41:49.016Z,16.25
2023-04-14T03:46:56.155Z,13.75
2023-04-14T03:52:04.129Z,11.25
2023-04-14T03:57:10.858Z,10.50
2023-04-14T04:02:17.338Z,11.50
2023-04-14T04:07:22.895Z,13.00
2023-04-14T04:12:29.254Z,9.75
2023-04-14T04:17:34.490Z,8.25
2023-04-14T04:22:43.277Z,9.75
2023-04-14T04:27:48.419Z,7.00
2023-04-14T04:32:54.447Z,8.50
2023-04-14T04:38:02.056Z,8.75
2023-04-14T04:43:08.053Z,8.50
2023-04-14T04:48:13.810Z,8.25
2023-04-14T04:53:20.854Z,7.50
2023-04-14T04:58:25.461Z,6.75
2023-04-14T05:03:29.855Z,7.50
2023-04-14T05:08:34.297Z,8.00
2023-04-14T05:13:38.789Z,6.00
2023-04-14T05:18:43.765Z,5.50
2023-04-14T05:23:48.598Z,6.75
2023-04-14T05:28:53.156Z,6.00
2023-04-14T05:33:57.486Z,8.00
2023-04-14T05:39:01.872Z,7.00
2023-04-14T05:44:06.410Z,6.50
2023-04-14T05:49:10.794Z,6.25
2023-04-14T05:54:17.025Z,7.00
2023-04-14T05:59:21.468Z,6.00
2023-04-14T06:04:25.823Z,6.00
2023-04-14T06:09:30.149Z,6.25
2023-04-14T06:14:34.491Z,5.25
2023-04-14T06:19:39.162Z,5.25
2023-04-14T06:24:43.419Z,4.75
2023-04-14T06:29:47.941Z,4.00
2023-04-14T06:34:53.519Z,16.00
2023-04-14T06:39:57.906Z,9.00
2023-04-14T06:45:02.193Z,5.25
2023-04-14T06:50:07.655Z,5.50
2023-04-14T06:55:12.034Z,7.00
2023-04-14T07:00:16.583Z,6.25
2023-04-14T07:05:21.070Z,8.50
2023-04-14T07:10:25.463Z,7.00
2023-04-14T07:15:31.312Z,4.75
2023-04-14T07:20:35.625Z,5.75
2023-04-14T07:25:39.989Z,6.50
2023-04-14T07:30:44.909Z,3.00
2023-04-14T07:36:01.282Z,3.50
2023-04-14T07:41:08.174Z,6.00
2023-04-14T07:46:12.398Z,4.00
2023-04-14T07:51:16.689Z,4.50
2023-04-14T07:56:20.967Z,4.25
2023-04-14T08:01:25.499Z,4.50
2023-04-14T08:06:30.395Z,4.50
2023-04-14T08:11:34.705Z,5.00
2023-04-14T08:16:39.184Z,5.00
2023-04-14T08:21:43.540Z,6.25
2023-04-14T08:26:48.078Z,5.75
2023-04-14T08:31:52.771Z,4.75
2023-04-14T08:36:58.249Z,7.00
2023-04-14T08:42:02.460Z,4.00
2023-04-14T08:47:07.937Z,7.00
2023-04-14T08:52:14.919Z,5.00
2023-04-14T08:57:23.658Z,21.50
2023-04-14T09:02:29.266Z,22.00
2023-04-14T09:07:34.695Z,18.00
2023-04-14T09:12:41.848Z,14.00
2023-04-14T09:17:46.594Z,15.25
2023-04-14T09:22:50.687Z,12.75
2023-04-14T09:27:55.229Z,13.25
2023-04-14T09:33:00.598Z,14.25
2023-04-14T09:38:05.093Z,13.50
2023-04-14T09:43:09.486Z,15.50
2023-04-14T09:48:16.498Z,13.75
2023-04-14T09:53:26.234Z,13.00
2023-04-14T09:58:43.452Z,15.00
2023-04-14T10:03:48.726Z,15.25
2023-04-14T10:08:54.163Z,13.00
2023-04-14T10:14:04.844Z,14.50
2023-04-14T10:19:09.610Z,15.00
2023-04-14T10:24:14.218Z,15.00
2023-04-14T10:29:20.372Z,12.25
2023-04-14T10:34:25.818Z,12.00
2023-04-14T10:39:31.789Z,36.50
2023-04-14T10:44:36.795Z,75.67
2023-04-14T10:49:42.806Z,67.67
2023-04-14T10:54:53.833Z,55.50
2023-04-14T11:00:03.840Z,53.00
2023-04-14T11:05:15.827Z,55.50
2023-04-14T11:10:20.405Z,43.25
2023-04-14T11:15:26.293Z,41.25
2023-04-14T11:20:31.038Z,41.00
2023-04-14T11:25:39.422Z,39.75
2023-04-14T11:30:44.598Z,39.50
2023-04-14T11:35:49.614Z,39.75
2023-04-14T11:40:54.860Z,39.50
2023-04-14T11:46:00.067Z,38.00
2023-04-14T11:51:05.975Z,36.25
2023-04-14T11:56:14.250Z,38.25
2023-04-14T12:01:24.319Z,38.75
2023-04-14T12:06:29.610Z,39.00
2023-04-14T12:11:35.465Z,37.50
2023-04-14T12:16:40.790Z,38.00
2023-04-14T12:21:53.764Z,37.50
2023-04-14T12:27:00.294Z,37.00
2023-04-14T12:32:11.653Z,37.50
2023-04-14T12:37:16.933Z,37.25
2023-04-14T12:42:21.899Z,34.00
2023-04-14T12:47:30.912Z,34.00
2023-04-14T12:52:40.926Z,34.00
2023-04-14T12:57:46.185Z,34.50
2023-04-14T13:02:52.683Z,34.00
2023-04-14T13:07:58.592Z,34.00
2023-04-14T13:13:05.269Z,34.00
2023-04-14T13:18:10.485Z,34.00
2023-04-14T13:23:15.972Z,34.75
2023-04-14T13:28:21.260Z,32.00
2023-04-14T13:33:27.050Z,35.50
2023-04-14T13:38:35.021Z,34.00
2023-04-14T13:43:40.066Z,34.00
2023-04-14T13:48:45.493Z,32.75
2023-04-14T13:53:50.586Z,32.50
2023-04-14T13:58:56.463Z,34.00
2023-04-14T14:04:14.652Z,33.50
2023-04-14T14:09:19.693Z,33.00
2023-04-14T14:14:25.899Z,32.50
2023-04-14T14:19:30.928Z,33.00
2023-04-14T14:24:36.131Z,33.00
2023-04-14T14:29:44.399Z,33.50
2023-04-14T14:34:49.467Z,32.00
2023-04-14T14:39:55.542Z,32.00
2023-04-14T14:45:01.364Z,33.00
2023-04-14T14:50:08.775Z,32.00
2023-04-14T14:55:15.663Z,30.50
2023-04-14T15:00:21.017Z,33.00
2023-04-14T15:05:26.128Z,32.00
2023-04-14T15:10:31.378Z,31.25
2023-04-14T15:15:37.868Z,31.75
2023-04-14T15:20:43.378Z,32.00
2023-04-14T15:25:48.933Z,30.00
2023-04-14T15:30:55.460Z,30.50
2023-04-14T15:36:00.662Z,33.00
2023-04-14T15:41:05.979Z,30.00
2023-04-14T15:46:12.412Z,31.00
2023-04-14T15:51:18.004Z,31.25
2023-04-14T15:56:24.471Z,30.00
2023-04-14T16:01:29.456Z,30.50
2023-04-14T16:06:35.518Z,30.25
2023-04-14T16:11:44.794Z,29.00
2023-04-14T16:16:49.885Z,30.00
2023-04-14T16:21:56.432Z,30.00
2023-04-14T16:27:01.319Z,29.75
2023-04-14T16:32:06.181Z,28.00
2023-04-14T16:37:11.225Z,29.75
2023-04-14T16:42:19.998Z,28.25
2023-04-14T16:47:25.162Z,28.00
2023-04-14T16:52:31.991Z,28.75
2023-04-14T16:57:38.237Z,28.00
2023-04-14T17:02:44.442Z,28.00
2023-04-14T17:07:50.518Z,27.00
2023-04-14T17:12:55.656Z,27.25
2023-04-14T17:18:00.625Z,26.00
2023-04-14T17:23:05.572Z,27.50
2023-04-14T17:28:10.824Z,27.25
2023-04-14T17:33:17.482Z,27.50
2023-04-14T17:38:22.390Z,25.75
2023-04-14T17:43:27.755Z,27.75
2023-04-14T17:48:33.462Z,27.00
2023-04-14T17:53:38.936Z,25.00
2023-04-14T17:58:43.675Z,27.75
2023-04-14T18:03:48.548Z,25.50
2023-04-14T18:08:54.293Z,25.00
2023-04-14T18:13:59.845Z,27.50
2023-04-14T18:19:04.888Z,26.75
2023-04-14T18:29:17.586Z,25.75
2023-04-14T18:34:22.807Z,24.00
2023-04-14T18:39:27.707Z,25.00
2023-04-14T18:44:32.345Z,26.00
2023-04-14T18:49:37.680Z,26.00
2023-04-14T18:54:43.844Z,23.50
2023-04-14T18:59:49.094Z,23.50
2023-04-14T19:04:54.212Z,23.25
2023-04-14T19:09:59.854Z,23.25
2023-04-14T19:15:05.694Z,23.00
2023-04-14T19:20:10.777Z,22.75
2023-04-14T19:25:17.097Z,23.50
2023-04-14T19:30:22.223Z,22.00
2023-04-14T19:35:27.052Z,22.50
2023-04-14T19:40:33.277Z,23.00
2023-04-14T19:45:38.598Z,23.00
2023-04-14T19:50:44.237Z,22.00
2023-04-14T19:55:57.073Z,21.75
2023-04-14T20:01:02.259Z,22.50
2023-04-14T20:06:07.458Z,20.00
2023-04-14T20:11:12.419Z,20.75
2023-04-14T20:16:17.443Z,22.25
2023-04-14T20:21:22.178Z,22.00
2023-04-14T20:26:27.027Z,20.50
2023-04-14T20:31:32.112Z,21.50
2023-04-14T20:36:37.133Z,21.50
2023-04-14T20:41:41.920Z,20.50
2023-04-14T20:46:46.822Z,19.75
2023-04-14T20:51:51.897Z,20.00
2023-04-14T20:56:57.266Z,21.00
2023-04-14T21:02:02.769Z,19.00
2023-04-14T21:07:09.058Z,19.00
2023-04-14T21:12:15.356Z,15.50
2023-04-14T21:17:21.439Z,19.50
2023-04-14T21:22:26.419Z,18.75
2023-04-14T21:27:31.668Z,19.00
2023-04-14T21:32:36.895Z,19.50
2023-04-14T21:37:41.964Z,19.00
2023-04-14T21:42:47.234Z,19.50
2023-04-14T21:47:53.098Z,17.75
2023-04-14T21:52:58.731Z,19.00
2023-04-14T21:58:05.124Z,16.00
2023-04-14T22:03:10.867Z,20.00
2023-04-14T22:08:17.686Z,17.50
2023-04-14T22:13:23.440Z,18.00
2023-04-14T22:18:32.334Z,17.50
2023-04-14T22:23:38.151Z,15.75
2023-04-14T22:28:43.172Z,17.50
2023-04-14T22:33:48.336Z,17.25
2023-04-14T22:38:53.249Z,14.75
2023-04-14T22:43:58.079Z,16.50
2023-04-14T22:49:02.950Z,17.75
2023-04-14T22:54:08.899Z,16.25
2023-04-14T22:59:13.882Z,17.00
2023-04-14T23:04:18.549Z,15.50
2023-04-14T23:09:24.095Z,17.25
2023-04-14T23:14:28.760Z,15.50
2023-04-14T23:19:35.084Z,17.00
2023-04-14T23:24:39.870Z,14.25
2023-04-14T23:29:44.895Z,16.00
2023-04-14T23:34:49.988Z,14.75
2023-04-14T23:39:54.714Z,12.25
2023-04-14T23:44:59.908Z,14.00
2023-04-14T23:50:04.857Z,13.50
2023-04-14T23:55:09.931Z,14.25
